createdAt,value
2023-03-06T00:00:25.240Z,1.05
2023-03-06T00:02:52.427Z,0.84
2023-03-06T00:05:19.325Z,0.88
2023-03-06T00:07:45.789Z,0.99
2023-03-06T00:10:18.022Z,1.09
2023-03-06T00:12:44.593Z,1.19
2023-03-06T00:15:12.395Z,1.13
2023-03-06T00:17:39.551Z,1.15
2023-03-06T00:20:07.180Z,0.96
2023-03-06T00:22:33.732Z,0.76
2023-03-06T00:25:00.245Z,0.60
2023-03-06T00:27:26.727Z,0.60
2023-03-06T00:29:57.673Z,0.52
2023-03-06T00:32:24.789Z,0.50
2023-03-06T00:34:52.375Z,0.48
2023-03-06T00:37:19.518Z,0.49
2023-03-06T00:39:46.605Z,0.46
2023-03-06T00:42:13.372Z,0.37
2023-03-06T00:44:39.841Z,0.32
2023-03-06T00:47:06.520Z,0.60
2023-03-06T00:49:33.203Z,0.68
2023-03-06T00:51:59.864Z,0.80
2023-03-06T00:54:26.432Z,0.74
2023-03-06T00:56:52.997Z,0.54
2023-03-06T00:59:19.664Z,0.50
2023-03-06T01:01:46.748Z,0.45
2023-03-06T01:04:14.508Z,0.54
2023-03-06T01:06:41.119Z,0.56
2023-03-06T01:09:07.644Z,0.74
2023-03-06T01:11:34.175Z,0.89
2023-03-06T01:14:00.800Z,0.97
2023-03-06T01:16:27.325Z,0.75
2023-03-06T01:18:53.846Z,0.66
2023-03-06T01:21:20.454Z,0.69
2023-03-06T01:23:47.478Z,0.61
2023-03-06T01:26:14.351Z,0.47
2023-03-06T01:28:40.960Z,0.40
2023-03-06T01:31:09.091Z,0.23
2023-03-06T01:33:36.443Z,0.30
2023-03-06T01:36:08.669Z,0.33
2023-03-06T01:38:36.092Z,0.41
2023-03-06T01:41:03.885Z,0.45
2023-03-06T01:43:39.039Z,0.48
2023-03-06T01:46:32.625Z,0.48
2023-03-06T01:49:23.932Z,0.22
2023-03-06T01:52:08.946Z,-0.02
2023-03-06T01:54:40.731Z,-0.01
2023-03-06T01:57:11.718Z,0.06
2023-03-06T01:59:40.368Z,0.14
2023-03-06T02:02:09.508Z,0.06
2023-03-06T02:04:39.575Z,-0.12
2023-03-06T02:07:07.487Z,-0.16
2023-03-06T02:09:35.582Z,-0.12
2023-03-06T02:12:06.254Z,-0.09
2023-03-06T02:14:33.793Z,-0.02
2023-03-06T02:17:00.636Z,-0.12
2023-03-06T02:20:12.489Z,-0.20
2023-03-06T02:22:58.391Z,-0.08
2023-03-06T02:25:37.249Z,0.18
2023-03-06T02:28:06.719Z,-0.11
2023-03-06T02:30:33.710Z,-0.27
2023-03-06T02:33:01.184Z,-0.46
2023-03-06T02:35:33.664Z,-0.60
2023-03-06T02:38:08.540Z,-0.72
2023-03-06T02:40:35.251Z,-0.52
2023-03-06T02:43:01.807Z,-0.76
2023-03-06T02:45:34.990Z,-0.82
2023-03-06T02:48:02.002Z,-0.81
2023-03-06T02:50:29.810Z,-0.82
2023-03-06T02:52:56.580Z,-0.83
2023-03-06T02:55:23.458Z,-0.86
2023-03-06T02:57:50.251Z,-0.93
2023-03-06T03:00:17.788Z,-0.82
2023-03-06T03:02:44.762Z,-0.63
2023-03-06T03:05:11.389Z,-0.63
2023-03-06T03:07:41.579Z,-0.54
2023-03-06T03:10:09.526Z,-0.57
2023-03-06T03:12:36.113Z,-0.70
2023-03-06T03:15:03.746Z,-0.79
2023-03-06T03:17:30.249Z,-0.90
2023-03-06T03:19:56.795Z,-0.98
2023-03-06T03:22:24.126Z,-1.00
2023-03-06T03:24:50.576Z,-0.86
2023-03-06T03:27:17.183Z,-0.63
2023-03-06T03:29:43.749Z,-0.76
2023-03-06T03:32:10.702Z,-0.77
2023-03-06T03:34:37.304Z,-0.70
2023-03-06T03:37:04.348Z,-0.74
2023-03-06T03:39:30.890Z,-0.61
2023-03-06T03:41:57.443Z,-0.59
2023-03-06T03:44:24.037Z,-0.53
2023-03-06T03:46:50.576Z,-0.71
2023-03-06T03:49:20.995Z,-0.73
2023-03-06T03:51:47.927Z,-0.69
2023-03-06T03:54:14.710Z,-0.54
2023-03-06T03:56:45.063Z,-0.54
2023-03-06T03:59:25.358Z,-0.69
2023-03-06T04:02:18.295Z,-0.75
2023-03-06T04:04:52.968Z,-0.74
2023-03-06T04:07:19.541Z,-0.68
2023-03-06T04:09:46.356Z,-0.58
2023-03-06T04:12:13.061Z,-0.49
2023-03-06T04:14:39.627Z,-0.37
2023-03-06T04:17:06.384Z,-0.40
2023-03-06T04:19:33.172Z,-0.29
2023-03-06T04:22:02.240Z,-0.13
2023-03-06T04:24:30.809Z,0.02
2023-03-06T04:26:57.665Z,-0.01
2023-03-06T04:29:24.497Z,-0.38
2023-03-06T04:31:51.056Z,-0.61
2023-03-06T04:34:17.568Z,-0.73
2023-03-06T04:36:45.309Z,-0.73
2023-03-06T04:39:13.876Z,-0.64
2023-03-06T04:41:41.382Z,-0.56
2023-03-06T04:44:08.743Z,-0.45
2023-03-06T04:46:35.873Z,-0.43
2023-03-06T04:49:02.813Z,-0.34
2023-03-06T04:51:29.615Z,-0.30
2023-03-06T04:53:56.209Z,-0.60
2023-03-06T04:56:23.270Z,-0.76
2023-03-06T04:58:49.870Z,-0.97
2023-03-06T05:01:16.484Z,-0.83
2023-03-06T05:03:43.051Z,-0.70
2023-03-06T05:06:09.666Z,-0.70
2023-03-06T05:08:36.443Z,-0.54
2023-03-06T05:11:03.080Z,-0.67
2023-03-06T05:13:29.641Z,-0.82
2023-03-06T05:16:01.800Z,-0.88
2023-03-06T05:18:28.300Z,-1.05
2023-03-06T05:20:59.392Z,-1.04
2023-03-06T05:23:30.660Z,-1.08
2023-03-06T05:25:57.897Z,-1.11
2023-03-06T05:28:25.871Z,-1.05
2023-03-06T05:30:52.612Z,-1.02
2023-03-06T05:33:19.111Z,-1.05
2023-03-06T05:35:49.527Z,-1.01
2023-03-06T05:38:17.653Z,-0.96
2023-03-06T05:40:44.703Z,-0.83
2023-03-06T05:43:12.001Z,-0.68
2023-03-06T05:45:39.694Z,-0.59
2023-03-06T05:48:07.056Z,-0.43
2023-03-06T05:50:33.653Z,-0.34
2023-03-06T05:53:00.766Z,-0.28
2023-03-06T05:55:27.249Z,-0.22
2023-03-06T05:57:54.106Z,-0.05
2023-03-06T06:00:21.668Z,0.10
2023-03-06T06:02:48.816Z,0.11
2023-03-06T06:05:15.412Z,0.13
2023-03-06T06:07:42.436Z,0.13
2023-03-06T06:10:10.864Z,0.21
2023-03-06T06:12:37.791Z,0.27
2023-03-06T06:15:04.981Z,0.30
2023-03-06T06:17:31.493Z,0.49
2023-03-06T06:19:58.050Z,0.55
2023-03-06T06:22:24.575Z,0.66
2023-03-06T06:24:51.100Z,0.77
2023-03-06T06:27:17.590Z,0.84
2023-03-06T06:29:44.114Z,0.79
2023-03-06T06:32:10.677Z,0.90
2023-03-06T06:34:37.174Z,0.68
2023-03-06T06:37:03.759Z,0.67
2023-03-06T06:39:30.462Z,0.86
2023-03-06T06:42:14.711Z,0.95
2023-03-06T06:44:44.070Z,0.83
2023-03-06T06:47:26.380Z,0.80
2023-03-06T06:49:54.604Z,0.98
2023-03-06T06:52:22.302Z,0.91
2023-03-06T06:54:49.027Z,0.88
2023-03-06T06:57:15.971Z,1.02
2023-03-06T06:59:42.566Z,1.09
2023-03-06T07:02:12.473Z,0.96
2023-03-06T07:04:44.333Z,0.99
2023-03-06T07:07:15.926Z,0.93
2023-03-06T07:09:42.548Z,1.17
2023-03-06T07:12:09.287Z,1.20
2023-03-06T07:14:35.936Z,1.09
2023-03-06T07:17:02.500Z,0.90
2023-03-06T07:19:28.975Z,0.99
2023-03-06T07:21:55.509Z,1.10
2023-03-06T07:24:22.010Z,1.06
2023-03-06T07:26:48.619Z,1.21
2023-03-06T07:29:15.560Z,1.18
2023-03-06T07:31:42.536Z,1.07
2023-03-06T07:34:13.009Z,1.15
2023-03-06T07:36:40.400Z,1.15
2023-03-06T07:39:09.927Z,1.12
2023-03-06T07:41:36.585Z,1.15
2023-03-06T07:44:03.329Z,1.16
2023-03-06T07:46:29.904Z,1.31
2023-03-06T07:48:56.513Z,1.28
2023-03-06T07:51:23.058Z,1.32
2023-03-06T07:53:49.838Z,1.30
2023-03-06T07:56:16.729Z,1.30
2023-03-06T07:58:45.552Z,1.35
2023-03-06T08:01:18.253Z,1.60
2023-03-06T08:03:44.791Z,1.68
2023-03-06T08:06:20.258Z,1.43
2023-03-06T08:08:47.868Z,1.47
2023-03-06T08:11:16.397Z,1.57
2023-03-06T08:13:43.917Z,1.66
2023-03-06T08:16:11.278Z,1.65
2023-03-06T08:18:39.779Z,1.60
2023-03-06T08:21:13.303Z,1.63
2023-03-06T08:23:40.328Z,1.67
2023-03-06T08:26:10.523Z,1.67
2023-03-06T08:28:37.012Z,1.58
2023-03-06T08:31:12.755Z,1.47
2023-03-06T08:33:40.614Z,1.68
2023-03-06T08:36:07.524Z,1.59
2023-03-06T08:38:33.974Z,1.67
2023-03-06T08:41:00.490Z,1.84
2023-03-06T08:43:27.143Z,1.91
2023-03-06T08:45:55.377Z,1.97
2023-03-06T08:48:21.908Z,1.76
2023-03-06T08:50:48.520Z,1.81
2023-03-06T08:53:15.078Z,1.86
2023-03-06T08:55:41.820Z,1.74
2023-03-06T08:58:08.612Z,1.51
2023-03-06T09:00:36.574Z,1.52
2023-03-06T09:03:03.984Z,1.50
2023-03-06T09:05:30.513Z,1.51
2023-03-06T09:07:57.190Z,1.51
2023-03-06T09:10:25.235Z,1.56
2023-03-06T09:12:54.808Z,1.35
2023-03-06T09:15:22.812Z,1.55
2023-03-06T09:17:50.802Z,1.53
2023-03-06T09:20:18.532Z,1.59
2023-03-06T09:22:45.775Z,1.83
2023-03-06T09:25:20.256Z,1.72
2023-03-06T09:27:55.415Z,1.64
2023-03-06T09:30:28.483Z,1.66
2023-03-06T09:32:54.989Z,1.60
2023-03-06T09:35:21.444Z,1.80
2023-03-06T09:37:48.032Z,1.69
2023-03-06T09:40:53.033Z,1.71
2023-03-06T09:43:25.553Z,1.83
2023-03-06T09:45:52.556Z,1.90
2023-03-06T09:48:28.482Z,1.76
2023-03-06T09:51:02.786Z,1.83
2023-03-06T09:53:50.679Z,1.69
2023-03-06T09:56:23.089Z,1.73
2023-03-06T09:58:59.402Z,1.88
2023-03-06T10:01:34.928Z,1.81
2023-03-06T10:04:30.555Z,1.85
2023-03-06T10:07:04.384Z,2.11
2023-03-06T10:09:55.669Z,1.86
2023-03-06T10:12:24.881Z,2.00
2023-03-06T10:15:08.931Z,2.01
2023-03-06T10:17:41.738Z,2.03
2023-03-06T10:20:37.243Z,2.05
2023-03-06T10:23:35.329Z,2.31
2023-03-06T10:26:08.657Z,2.42
2023-03-06T10:28:37.596Z,2.35
2023-03-06T10:31:20.770Z,2.31
2023-03-06T10:34:06.705Z,2.05
2023-03-06T10:36:33.202Z,2.26
2023-03-06T10:38:59.951Z,2.15
2023-03-06T10:41:31.485Z,2.20
2023-03-06T10:44:19.798Z,2.42
2023-03-06T10:46:49.878Z,2.68
2023-03-06T10:49:27.667Z,2.52
2023-03-06T10:52:01.553Z,2.45
2023-03-06T10:54:30.928Z,2.46
2023-03-06T10:56:57.781Z,2.60
2023-03-06T10:59:28.237Z,2.54
2023-03-06T11:01:57.464Z,2.84
2023-03-06T11:04:26.959Z,2.85
2023-03-06T11:07:12.202Z,2.76
2023-03-06T11:09:38.847Z,2.68
2023-03-06T11:12:41.958Z,2.83
2023-03-06T11:15:14.438Z,3.03
2023-03-06T11:18:09.790Z,3.29
2023-03-06T11:20:52.549Z,3.31
2023-03-06T11:23:42.783Z,3.45
2023-03-06T11:26:15.242Z,3.24
2023-03-06T11:29:09.112Z,3.44
2023-03-06T11:31:42.826Z,3.71
2023-03-06T11:34:12.343Z,3.81
2023-03-06T11:36:47.267Z,3.84
2023-03-06T11:39:50.157Z,3.82
2023-03-06T11:42:34.284Z,3.96
2023-03-06T11:45:18.915Z,4.19
2023-03-06T11:47:58.979Z,4.15
2023-03-06T11:50:36.617Z,4.18
2023-03-06T11:53:11.162Z,4.19
2023-03-06T11:55:40.673Z,4.35
2023-03-06T11:58:25.775Z,4.11
2023-03-06T12:01:11.851Z,4.09
2023-03-06T12:04:04.367Z,4.02
2023-03-06T12:06:51.224Z,3.81
2023-03-06T12:09:33.193Z,3.81
2023-03-06T12:12:21.504Z,3.84
2023-03-06T12:14:51.009Z,3.69
2023-03-06T12:17:33.369Z,3.69
2023-03-06T12:20:27.264Z,3.69
2023-03-06T12:23:15.523Z,3.85
2023-03-06T12:26:11.284Z,3.64
2023-03-06T12:28:52.246Z,4.03
2023-03-06T12:31:59.278Z,3.83
2023-03-06T12:34:53.787Z,3.66
2023-03-06T12:37:31.310Z,3.93
2023-03-06T12:40:26.116Z,3.73
2023-03-06T12:43:20.674Z,3.54
2023-03-06T12:45:49.647Z,3.57
2023-03-06T12:48:23.088Z,3.66
2023-03-06T12:50:50.179Z,3.78
2023-03-06T12:53:27.600Z,3.93
2023-03-06T12:55:55.824Z,4.03
2023-03-06T12:58:28.431Z,3.75
2023-03-06T13:01:05.847Z,3.84
2023-03-06T13:03:44.797Z,4.28
2023-03-06T13:06:30.936Z,4.02
2023-03-06T13:09:07.467Z,4.27
2023-03-06T13:11:33.874Z,3.90
2023-03-06T13:14:00.388Z,3.84
2023-03-06T13:16:32.364Z,3.97
2023-03-06T13:19:24.210Z,3.85
2023-03-06T13:21:53.648Z,3.88
2023-03-06T13:24:22.081Z,3.84
2023-03-06T13:26:54.624Z,3.97
2023-03-06T13:29:36.390Z,4.03
2023-03-06T13:32:02.930Z,3.84
2023-03-06T13:34:34.036Z,3.89
2023-03-06T13:37:25.293Z,3.97
2023-03-06T13:39:54.758Z,3.87
2023-03-06T13:42:30.201Z,3.69
2023-03-06T13:45:05.919Z,3.95
2023-03-06T13:48:19.457Z,4.11
2023-03-06T13:50:48.136Z,4.11
2023-03-06T13:53:48.280Z,3.93
2023-03-06T13:56:33.247Z,3.88
2023-03-06T13:59:36.669Z,3.67
2023-03-06T14:02:37.016Z,3.76
2023-03-06T14:05:11.785Z,3.66
2023-03-06T14:07:46.562Z,3.79
2023-03-06T14:10:13.008Z,3.78
2023-03-06T14:12:59.771Z,3.82
2023-03-06T14:15:35.937Z,3.68
2023-03-06T14:18:07.152Z,3.63
2023-03-06T14:20:52.478Z,3.63
2023-03-06T14:23:21.686Z,3.57
2023-03-06T14:25:54.574Z,3.49
2023-03-06T14:28:26.476Z,3.53
2023-03-06T14:30:54.621Z,3.51
2023-03-06T14:33:26.588Z,3.48
2023-03-06T14:36:02.149Z,3.64
2023-03-06T14:38:33.368Z,3.56
2023-03-06T14:41:00.139Z,3.63
2023-03-06T14:43:27.905Z,3.54
2023-03-06T14:46:06.470Z,3.53
2023-03-06T14:48:45.647Z,3.43
2023-03-06T14:51:21.669Z,3.43
2023-03-06T14:53:50.243Z,3.43
2023-03-06T14:56:23.201Z,3.53
2023-03-06T14:59:00.493Z,3.31
2023-03-06T15:01:29.986Z,3.18
2023-03-06T15:04:00.169Z,3.10
2023-03-06T15:06:38.203Z,3.09
2023-03-06T15:09:13.662Z,3.04
2023-03-06T15:12:04.349Z,3.15
2023-03-06T15:14:40.917Z,3.09
2023-03-06T15:17:37.870Z,3.24
2023-03-06T15:20:09.755Z,3.12
2023-03-06T15:22:40.535Z,2.69
2023-03-06T15:25:16.005Z,2.76
2023-03-06T15:27:57.487Z,2.67
2023-03-06T15:30:31.311Z,2.59
2023-03-06T15:33:24.241Z,2.50
2023-03-06T15:35:58.879Z,2.29
2023-03-06T15:38:32.882Z,2.11
2023-03-06T15:41:01.447Z,2.08
2023-03-06T15:43:31.734Z,2.14
2023-03-06T15:46:00.871Z,2.06
2023-03-06T15:48:28.491Z,2.20
2023-03-06T15:50:55.129Z,2.35
2023-03-06T15:53:21.696Z,2.17
2023-03-06T15:55:49.012Z,2.15
2023-03-06T15:58:20.435Z,2.15
2023-03-06T16:00:47.022Z,2.11
2023-03-06T16:03:13.557Z,2.31
2023-03-06T16:05:40.198Z,2.17
2023-03-06T16:08:09.395Z,2.34
2023-03-06T16:10:39.279Z,2.13
2023-03-06T16:13:18.864Z,2.34
2023-03-06T16:15:50.228Z,2.20
2023-03-06T16:18:17.550Z,1.95
2023-03-06T16:20:44.888Z,1.97
2023-03-06T16:23:11.541Z,2.03
2023-03-06T16:25:40.589Z,2.09
2023-03-06T16:28:12.364Z,1.97
2023-03-06T16:30:38.776Z,1.88
2023-03-06T16:33:05.783Z,1.92
2023-03-06T16:35:32.378Z,1.98
2023-03-06T16:38:00.033Z,1.93
2023-03-06T16:40:29.597Z,1.82
2023-03-06T16:42:56.410Z,1.89
2023-03-06T16:45:24.452Z,2.09
2023-03-06T16:47:51.407Z,1.86
2023-03-06T16:50:30.683Z,1.73
2023-03-06T16:52:58.372Z,1.86
2023-03-06T16:55:26.582Z,1.73
2023-03-06T16:57:53.908Z,1.83
2023-03-06T17:00:21.390Z,1.95
2023-03-06T17:02:49.028Z,2.04
2023-03-06T17:05:15.850Z,1.97
2023-03-06T17:07:42.618Z,1.84
2023-03-06T17:10:12.180Z,1.72
2023-03-06T17:12:38.935Z,1.57
2023-03-06T17:15:06.450Z,1.57
2023-03-06T17:17:33.611Z,1.59
2023-03-06T17:20:00.258Z,1.63
2023-03-06T17:22:27.334Z,1.70
2023-03-06T17:24:53.925Z,1.50
2023-03-06T17:27:22.378Z,1.50
2023-03-06T17:29:48.917Z,1.57
2023-03-06T17:32:15.390Z,1.67
2023-03-06T17:34:42.195Z,1.68
2023-03-06T17:37:08.773Z,1.68
2023-03-06T17:39:37.936Z,1.71
2023-03-06T17:42:05.689Z,1.62
2023-03-06T17:44:33.244Z,1.77
2023-03-06T17:46:59.772Z,1.80
2023-03-06T17:49:26.312Z,1.87
2023-03-06T17:51:53.978Z,1.83
2023-03-06T17:54:20.719Z,1.55
2023-03-06T17:56:47.188Z,1.72
2023-03-06T17:59:14.178Z,1.62
2023-03-06T18:01:40.706Z,1.63
2023-03-06T18:04:07.632Z,1.53
2023-03-06T18:06:34.452Z,1.53
2023-03-06T18:09:01.369Z,1.67
2023-03-06T18:11:28.330Z,1.56
2023-03-06T18:13:54.997Z,1.61
2023-03-06T18:16:24.402Z,1.43
2023-03-06T18:18:52.640Z,1.63
2023-03-06T18:21:19.388Z,1.58
2023-03-06T18:23:45.875Z,1.63
2023-03-06T18:26:13.820Z,1.61
2023-03-06T18:28:42.597Z,1.54
2023-03-06T18:31:17.824Z,1.53
2023-03-06T18:33:44.880Z,1.64
2023-03-06T18:36:11.391Z,1.62
2023-03-06T18:38:39.599Z,1.60
2023-03-06T18:41:09.472Z,1.55
2023-03-06T18:43:37.068Z,1.72
2023-03-06T18:46:04.952Z,1.72
2023-03-06T18:48:31.547Z,1.60
2023-03-06T18:51:07.557Z,1.50
2023-03-06T18:53:34.718Z,1.45
2023-03-06T18:56:01.684Z,1.51
2023-03-06T18:58:28.177Z,1.48
2023-03-06T19:00:54.702Z,1.48
2023-03-06T19:03:21.252Z,1.38
2023-03-06T19:05:48.891Z,1.30
2023-03-06T19:08:16.805Z,1.20
2023-03-06T19:10:46.267Z,1.43
2023-03-06T19:13:13.761Z,1.31
2023-03-06T19:15:48.290Z,1.32
2023-03-06T19:18:17.680Z,1.38
2023-03-06T19:20:45.279Z,1.42
2023-03-06T19:23:11.797Z,1.47
2023-03-06T19:25:38.264Z,1.50
2023-03-06T19:28:05.571Z,1.51
2023-03-06T19:30:32.105Z,1.52
2023-03-06T19:32:58.747Z,1.42
2023-03-06T19:35:26.810Z,1.36
2023-03-06T19:37:53.562Z,1.43
2023-03-06T19:40:20.305Z,1.34
2023-03-06T19:42:46.901Z,1.31
2023-03-06T19:45:13.435Z,1.21
2023-03-06T19:47:39.929Z,1.21
2023-03-06T19:50:06.892Z,1.27
2023-03-06T19:52:36.400Z,1.22
2023-03-06T19:55:02.958Z,1.26
2023-03-06T19:57:29.740Z,1.16
2023-03-06T19:59:58.485Z,0.97
2023-03-06T20:02:27.155Z,0.95
2023-03-06T20:04:54.725Z,1.05
2023-03-06T20:07:21.614Z,1.15
2023-03-06T20:09:48.270Z,1.17
2023-03-06T20:12:15.557Z,1.09
2023-03-06T20:14:42.782Z,1.12
2023-03-06T20:17:09.247Z,1.07
2023-03-06T20:19:36.609Z,1.06
2023-03-06T20:22:03.470Z,1.05
2023-03-06T20:24:29.970Z,1.11
2023-03-06T20:26:57.675Z,1.24
2023-03-06T20:29:28.211Z,1.10
2023-03-06T20:31:57.174Z,1.02
2023-03-06T20:34:24.605Z,1.11
2023-03-06T20:36:51.445Z,1.27
2023-03-06T20:39:23.534Z,1.25
2023-03-06T20:41:50.051Z,1.27
2023-03-06T20:44:19.207Z,1.33
2023-03-06T20:46:46.128Z,1.37
2023-03-06T20:49:13.283Z,1.43
2023-03-06T20:51:41.448Z,1.26
2023-03-06T20:54:10.135Z,1.21
2023-03-06T20:56:39.503Z,1.15
2023-03-06T20:59:06.820Z,0.99
2023-03-06T21:01:35.977Z,0.95
2023-03-06T21:04:04.747Z,0.99
2023-03-06T21:06:32.358Z,1.03
2023-03-06T21:09:00.634Z,1.19
2023-03-06T21:11:28.486Z,1.15
2023-03-06T21:13:55.707Z,1.21
2023-03-06T21:16:24.578Z,1.18
2023-03-06T21:18:53.484Z,1.19
2023-03-06T21:21:24.108Z,1.17
2023-03-06T21:23:52.410Z,1.14
2023-03-06T21:26:22.116Z,1.20
2023-03-06T21:28:48.781Z,1.11
2023-03-06T21:31:18.018Z,0.96
2023-03-06T21:33:45.127Z,0.98
2023-03-06T21:36:11.943Z,1.04
2023-03-06T21:38:38.878Z,1.04
2023-03-06T21:41:12.815Z,1.00
2023-03-06T21:43:39.929Z,0.93
2023-03-06T21:46:06.668Z,0.86
2023-03-06T21:48:33.633Z,0.95
2023-03-06T21:51:15.849Z,0.92
2023-03-06T21:53:43.981Z,0.85
2023-03-06T21:56:12.864Z,0.93
2023-03-06T21:58:39.955Z,0.84
2023-03-06T22:01:11.735Z,0.94
2023-03-06T22:03:38.614Z,1.04
2023-03-06T22:06:10.427Z,1.00
2023-03-06T22:08:37.161Z,1.02
2023-03-06T22:11:08.209Z,1.04
2023-03-06T22:13:34.685Z,1.06
2023-03-06T22:16:01.347Z,1.08
2023-03-06T22:18:27.958Z,1.14
2023-03-06T22:20:54.773Z,0.93
2023-03-06T22:23:21.265Z,1.05
2023-03-06T22:25:47.828Z,1.13
2023-03-06T22:28:15.970Z,1.19
2023-03-06T22:30:42.829Z,1.22
2023-03-06T22:33:09.351Z,1.28
2023-03-06T22:35:35.903Z,1.41
2023-03-06T22:38:04.579Z,1.47
2023-03-06T22:40:32.468Z,1.24
2023-03-06T22:42:58.997Z,1.16
2023-03-06T22:45:25.515Z,1.15
2023-03-06T22:47:55.161Z,1.17
2023-03-06T22:50:23.828Z,1.08
2023-03-06T22:52:50.355Z,1.04
2023-03-06T22:55:16.948Z,1.16
2023-03-06T22:57:44.948Z,1.16
2023-03-06T23:00:12.107Z,1.09
2023-03-06T23:02:38.661Z,1.00
2023-03-06T23:05:05.464Z,0.96
2023-03-06T23:07:31.916Z,1.07
2023-03-06T23:10:01.109Z,1.11
2023-03-06T23:12:46.297Z,1.00
2023-03-06T23:15:31.985Z,1.09
2023-03-06T23:18:17.165Z,0.99
2023-03-06T23:21:14.144Z,0.98
2023-03-06T23:23:59.270Z,0.97
2023-03-06T23:26:28.992Z,0.75
2023-03-06T23:28:56.780Z,0.60
2023-03-06T23:31:28.637Z,0.49
2023-03-06T23:34:00.566Z,0.40
2023-03-06T23:36:28.246Z,0.35
2023-03-06T23:38:55.442Z,0.36
2023-03-06T23:41:23.640Z,0.44
2023-03-06T23:43:50.694Z,0.44
2023-03-06T23:46:17.781Z,0.40
2023-03-06T23:48:44.891Z,0.23
2023-03-06T23:51:17.014Z,0.22
2023-03-06T23:53:46.066Z,0.29
2023-03-06T23:56:13.272Z,0.29
2023-03-06T23:58:39.883Z,0.46
